CheckWX is a tool to help pilots better visualize weather data.  It is not intended as a substitute for an official pre-flight weather briefing.

13:11:07 UTC

YSSY TAF
Sydney Kingsford Smith International Airport
Sydney, Australia
TAF YSSY 241107Z 2412/2518 29008KT CAVOK

May-24@
12:00 UTC

May-24 @ 12:00 UTC

May-25@
18:00 UTC

May-25 @ 18:00 UTC

TAF YSSY 241107Z 2412/2518 29008KT CAVOK
Wind
  • 290° at 8 KTS
Conditions
No significant weather
Cloud Levels
  • No significant clouds